sensor_id;sensor_type;location;lat;lon;timestamp;P1;durP1;ratioP1;P2;durP2;ratioP2
1799;SDS011;919;48.274;12.292;2022-12-29T00:02:09;4.93;;;4.50;;
1799;SDS011;919;48.274;12.292;2022-12-29T00:04:36;8.60;;;4.60;;
1799;SDS011;919;48.274;12.292;2022-12-29T00:07:05;6.60;;;5.00;;
1799;SDS011;919;48.274;12.292;2022-12-29T00:09:32;6.00;;;4.47;;
1799;SDS011;919;48.274;12.292;2022-12-29T00:11:59;5.17;;;4.20;;
1799;SDS011;919;48.274;12.292;2022-12-29T00:14:27;4.80;;;4.30;;
1799;SDS011;919;48.274;12.292;2022-12-29T00:17:11;4.17;;;3.77;;
1799;SDS011;919;48.274;12.292;2022-12-29T00:19:38;4.10;;;3.77;;
1799;SDS011;919;48.274;12.292;2022-12-29T00:22:24;7.97;;;5.53;;
1799;SDS011;919;48.274;12.292;2022-12-29T00:25:09;5.93;;;4.40;;
1799;SDS011;919;48.274;12.292;2022-12-29T00:27:54;7.40;;;3.97;;
1799;SDS011;919;48.274;12.292;2022-12-29T00:30:39;7.20;;;5.30;;
1799;SDS011;919;48.274;12.292;2022-12-29T00:33:25;5.43;;;4.30;;
1799;SDS011;919;48.274;12.292;2022-12-29T00:36:12;4.77;;;4.10;;
1799;SDS011;919;48.274;12.292;2022-12-29T00:38:45;5.07;;;4.17;;
1799;SDS011;919;48.274;12.292;2022-12-29T00:41:32;4.40;;;3.73;;
1799;SDS011;919;48.274;12.292;2022-12-29T00:44:16;5.40;;;4.47;;
1799;SDS011;919;48.274;12.292;2022-12-29T00:46:43;5.43;;;4.17;;
1799;SDS011;919;48.274;12.292;2022-12-29T00:49:11;4.80;;;4.30;;
1799;SDS011;919;48.274;12.292;2022-12-29T00:51:57;4.90;;;4.23;;
1799;SDS011;919;48.274;12.292;2022-12-29T00:54:27;5.30;;;4.10;;
1799;SDS011;919;48.274;12.292;2022-12-29T00:56:54;5.47;;;3.80;;
1799;SDS011;919;48.274;12.292;2022-12-29T00:59:21;3.70;;;3.40;;
1799;SDS011;919;48.274;12.292;2022-12-29T01:01:49;5.43;;;3.73;;
1799;SDS011;919;48.274;12.292;2022-12-29T01:04:16;7.83;;;4.33;;
1799;SDS011;919;48.274;12.292;2022-12-29T01:06:42;4.33;;;3.93;;
1799;SDS011;919;48.274;12.292;2022-12-29T01:09:09;5.43;;;3.63;;
1799;SDS011;919;48.274;12.292;2022-12-29T01:11:55;5.53;;;4.03;;
1799;SDS011;919;48.274;12.292;2022-12-29T01:14:22;4.50;;;4.07;;
1799;SDS011;919;48.274;12.292;2022-12-29T01:16:50;5.37;;;3.97;;
1799;SDS011;919;48.274;12.292;2022-12-29T01:19:17;4.57;;;3.83;;
1799;SDS011;919;48.274;12.292;2022-12-29T01:21:45;4.03;;;3.60;;
1799;SDS011;919;48.274;12.292;2022-12-29T01:24:12;5.10;;;3.80;;
1799;SDS011;919;48.274;12.292;2022-12-29T01:26:39;5.23;;;3.77;;
1799;SDS011;919;48.274;12.292;2022-12-29T01:29:07;5.50;;;3.47;;
1799;SDS011;919;48.274;12.292;2022-12-29T01:31:34;6.63;;;3.30;;
1799;SDS011;919;48.274;12.292;2022-12-29T01:34:01;3.30;;;3.00;;
1799;SDS011;919;48.274;12.292;2022-12-29T01:36:28;4.70;;;3.37;;
1799;SDS011;919;48.274;12.292;2022-12-29T01:38:55;5.73;;;3.37;;
1799;SDS011;919;48.274;12.292;2022-12-29T01:41:22;5.10;;;3.57;;
1799;SDS011;919;48.274;12.292;2022-12-29T01:43:50;4.50;;;3.10;;
1799;SDS011;919;48.274;12.292;2022-12-29T01:46:22;4.10;;;3.00;;
1799;SDS011;919;48.274;12.292;2022-12-29T01:48:53;3.47;;;2.90;;
1799;SDS011;919;48.274;12.292;2022-12-29T01:51:23;3.40;;;3.10;;
1799;SDS011;919;48.274;12.292;2022-12-29T01:53:52;4.73;;;3.27;;
1799;SDS011;919;48.274;12.292;2022-12-29T01:56:21;5.37;;;3.50;;
1799;SDS011;919;48.274;12.292;2022-12-29T01:58:50;4.27;;;3.17;;
1799;SDS011;919;48.274;12.292;2022-12-29T02:01:23;3.77;;;3.10;;
1799;SDS011;919;48.274;12.292;2022-12-29T02:03:49;3.40;;;3.10;;
1799;SDS011;919;48.274;12.292;2022-12-29T02:06:18;2.00;;;1.87;;
1799;SDS011;919;48.274;12.292;2022-12-29T02:08:49;3.00;;;2.60;;
1799;SDS011;919;48.274;12.292;2022-12-29T02:11:18;4.23;;;2.37;;
1799;SDS011;919;48.274;12.292;2022-12-29T02:13:45;5.00;;;2.77;;
1799;SDS011;919;48.274;12.292;2022-12-29T02:16:14;2.67;;;2.47;;
1799;SDS011;919;48.274;12.292;2022-12-29T02:18:56;2.10;;;1.90;;
1799;SDS011;919;48.274;12.292;2022-12-29T02:21:45;3.20;;;2.73;;
1799;SDS011;919;48.274;12.292;2022-12-29T02:30:38;2.63;;;1.97;;
1799;SDS011;919;48.274;12.292;2022-12-29T02:33:12;2.60;;;2.40;;
1799;SDS011;919;48.274;12.292;2022-12-29T02:35:48;2.53;;;1.83;;
1799;SDS011;919;48.274;12.292;2022-12-29T02:38:25;2.43;;;1.70;;
1799;SDS011;919;48.274;12.292;2022-12-29T02:41:06;2.60;;;2.30;;
1799;SDS011;919;48.274;12.292;2022-12-29T02:43:42;1.47;;;1.37;;
1799;SDS011;919;48.274;12.292;2022-12-29T02:46:18;1.80;;;1.70;;
1799;SDS011;919;48.274;12.292;2022-12-29T02:48:50;3.43;;;2.20;;
1799;SDS011;919;48.274;12.292;2022-12-29T02:51:23;2.57;;;2.17;;
1799;SDS011;919;48.274;12.292;2022-12-29T02:53:53;2.10;;;1.90;;
1799;SDS011;919;48.274;12.292;2022-12-29T02:56:40;3.47;;;2.10;;
1799;SDS011;919;48.274;12.292;2022-12-29T02:59:06;3.20;;;2.50;;
1799;SDS011;919;48.274;12.292;2022-12-29T03:01:39;3.43;;;2.70;;
1799;SDS011;919;48.274;12.292;2022-12-29T03:04:36;3.60;;;3.10;;
1799;SDS011;919;48.274;12.292;2022-12-29T03:07:12;4.00;;;3.00;;
1799;SDS011;919;48.274;12.292;2022-12-29T03:09:47;5.70;;;3.70;;
1799;SDS011;919;48.274;12.292;2022-12-29T03:12:24;4.90;;;3.43;;
1799;SDS011;919;48.274;12.292;2022-12-29T03:15:15;7.63;;;3.63;;
1799;SDS011;919;48.274;12.292;2022-12-29T03:18:09;9.17;;;3.60;;
1799;SDS011;919;48.274;12.292;2022-12-29T03:20:41;5.70;;;3.00;;
1799;SDS011;919;48.274;12.292;2022-12-29T03:23:13;3.70;;;2.90;;
1799;SDS011;919;48.274;12.292;2022-12-29T03:25:42;3.23;;;2.93;;
1799;SDS011;919;48.274;12.292;2022-12-29T03:28:13;4.80;;;3.13;;
1799;SDS011;919;48.274;12.292;2022-12-29T03:30:44;3.80;;;3.17;;
1799;SDS011;919;48.274;12.292;2022-12-29T03:33:14;3.80;;;2.13;;
1799;SDS011;919;48.274;12.292;2022-12-29T03:35:45;3.13;;;2.47;;
1799;SDS011;919;48.274;12.292;2022-12-29T03:38:15;3.10;;;2.70;;
1799;SDS011;919;48.274;12.292;2022-12-29T03:40:45;4.20;;;2.60;;
1799;SDS011;919;48.274;12.292;2022-12-29T03:43:15;6.50;;;2.70;;
1799;SDS011;919;48.274;12.292;2022-12-29T03:45:43;3.73;;;2.50;;
1799;SDS011;919;48.274;12.292;2022-12-29T03:48:10;4.33;;;2.90;;
1799;SDS011;919;48.274;12.292;2022-12-29T03:50:38;2.67;;;2.40;;
1799;SDS011;919;48.274;12.292;2022-12-29T03:53:04;3.67;;;2.80;;
1799;SDS011;919;48.274;12.292;2022-12-29T03:55:31;5.10;;;2.90;;
1799;SDS011;919;48.274;12.292;2022-12-29T03:57:58;3.10;;;2.60;;
1799;SDS011;919;48.274;12.292;2022-12-29T04:00:25;3.40;;;2.67;;
1799;SDS011;919;48.274;12.292;2022-12-29T04:02:51;5.87;;;2.57;;
1799;SDS011;919;48.274;12.292;2022-12-29T04:05:18;5.03;;;3.37;;
1799;SDS011;919;48.274;12.292;2022-12-29T04:07:49;3.37;;;3.10;;
1799;SDS011;919;48.274;12.292;2022-12-29T04:10:16;4.33;;;3.40;;
1799;SDS011;919;48.274;12.292;2022-12-29T04:12:42;4.87;;;3.27;;
1799;SDS011;919;48.274;12.292;2022-12-29T04:15:11;3.40;;;3.00;;
1799;SDS011;919;48.274;12.292;2022-12-29T04:17:38;3.03;;;2.77;;
1799;SDS011;919;48.274;12.292;2022-12-29T04:20:05;4.73;;;3.30;;
1799;SDS011;919;48.274;12.292;2022-12-29T04:22:51;4.30;;;3.50;;
1799;SDS011;919;48.274;12.292;2022-12-29T04:25:24;6.57;;;3.70;;
1799;SDS011;919;48.274;12.292;2022-12-29T04:27:51;3.70;;;2.67;;
1799;SDS011;919;48.274;12.292;2022-12-29T04:30:18;2.67;;;2.43;;
1799;SDS011;919;48.274;12.292;2022-12-29T04:32:44;3.60;;;2.83;;
1799;SDS011;919;48.274;12.292;2022-12-29T04:35:11;3.03;;;2.80;;
1799;SDS011;919;48.274;12.292;2022-12-29T04:37:38;2.73;;;2.47;;
1799;SDS011;919;48.274;12.292;2022-12-29T04:40:06;4.33;;;3.00;;
1799;SDS011;919;48.274;12.292;2022-12-29T04:42:34;2.93;;;2.63;;
1799;SDS011;919;48.274;12.292;2022-12-29T04:45:01;2.87;;;2.67;;
1799;SDS011;919;48.274;12.292;2022-12-29T04:47:28;4.60;;;2.33;;
1799;SDS011;919;48.274;12.292;2022-12-29T04:49:54;4.10;;;2.20;;
1799;SDS011;919;48.274;12.292;2022-12-29T04:52:21;2.50;;;2.00;;
1799;SDS011;919;48.274;12.292;2022-12-29T04:54:48;2.27;;;1.83;;
1799;SDS011;919;48.274;12.292;2022-12-29T04:57:16;1.10;;;1.10;;
1799;SDS011;919;48.274;12.292;2022-12-29T04:59:43;2.23;;;1.77;;
1799;SDS011;919;48.274;12.292;2022-12-29T05:02:09;1.80;;;1.70;;
1799;SDS011;919;48.274;12.292;2022-12-29T05:04:36;2.17;;;1.83;;
1799;SDS011;919;48.274;12.292;2022-12-29T05:07:03;1.53;;;1.43;;
1799;SDS011;919;48.274;12.292;2022-12-29T05:09:29;2.57;;;2.00;;
1799;SDS011;919;48.274;12.292;2022-12-29T05:11:56;2.63;;;1.83;;
1799;SDS011;919;48.274;12.292;2022-12-29T05:14:24;2.10;;;1.93;;
1799;SDS011;919;48.274;12.292;2022-12-29T05:16:51;1.83;;;1.70;;
1799;SDS011;919;48.274;12.292;2022-12-29T05:19:18;1.80;;;1.70;;
1799;SDS011;919;48.274;12.292;2022-12-29T05:21:44;2.90;;;1.70;;
1799;SDS011;919;48.274;12.292;2022-12-29T05:24:11;1.90;;;1.80;;
1799;SDS011;919;48.274;12.292;2022-12-29T05:26:38;2.20;;;1.60;;
1799;SDS011;919;48.274;12.292;2022-12-29T05:29:05;2.07;;;1.87;;
1799;SDS011;919;48.274;12.292;2022-12-29T05:31:33;2.03;;;1.83;;
1799;SDS011;919;48.274;12.292;2022-12-29T05:34:00;2.57;;;1.90;;
1799;SDS011;919;48.274;12.292;2022-12-29T05:36:27;1.83;;;1.53;;
1799;SDS011;919;48.274;12.292;2022-12-29T05:38:54;2.70;;;1.70;;
1799;SDS011;919;48.274;12.292;2022-12-29T05:41:20;6.03;;;1.73;;
1799;SDS011;919;48.274;12.292;2022-12-29T05:43:47;3.17;;;2.30;;
1799;SDS011;919;48.274;12.292;2022-12-29T05:46:14;1.93;;;1.80;;
1799;SDS011;919;48.274;12.292;2022-12-29T05:48:42;2.53;;;2.03;;
1799;SDS011;919;48.274;12.292;2022-12-29T05:51:09;2.00;;;1.80;;
1799;SDS011;919;48.274;12.292;2022-12-29T05:53:36;1.93;;;1.40;;
1799;SDS011;919;48.274;12.292;2022-12-29T05:56:03;3.47;;;1.80;;
1799;SDS011;919;48.274;12.292;2022-12-29T05:58:29;2.03;;;1.83;;
1799;SDS011;919;48.274;12.292;2022-12-29T06:00:56;2.00;;;1.43;;
1799;SDS011;919;48.274;12.292;2022-12-29T06:03:23;1.90;;;1.63;;
1799;SDS011;919;48.274;12.292;2022-12-29T06:05:51;2.60;;;2.40;;
1799;SDS011;919;48.274;12.292;2022-12-29T06:08:18;2.90;;;1.60;;
1799;SDS011;919;48.274;12.292;2022-12-29T06:10:45;1.60;;;1.50;;
1799;SDS011;919;48.274;12.292;2022-12-29T06:13:12;1.73;;;1.57;;
1799;SDS011;919;48.274;12.292;2022-12-29T06:15:38;1.87;;;1.50;;
1799;SDS011;919;48.274;12.292;2022-12-29T06:18:05;2.30;;;2.10;;
1799;SDS011;919;48.274;12.292;2022-12-29T06:20:32;1.60;;;1.50;;
1799;SDS011;919;48.274;12.292;2022-12-29T06:23:00;1.90;;;1.67;;
1799;SDS011;919;48.274;12.292;2022-12-29T06:25:27;1.70;;;1.60;;
1799;SDS011;919;48.274;12.292;2022-12-29T06:27:55;2.80;;;1.80;;
1799;SDS011;919;48.274;12.292;2022-12-29T06:30:22;2.33;;;2.00;;
1799;SDS011;919;48.274;12.292;2022-12-29T06:32:49;2.20;;;1.83;;
1799;SDS011;919;48.274;12.292;2022-12-29T06:35:16;1.97;;;1.87;;
1799;SDS011;919;48.274;12.292;2022-12-29T06:37:43;2.53;;;2.00;;
1799;SDS011;919;48.274;12.292;2022-12-29T06:40:12;2.33;;;2.13;;
1799;SDS011;919;48.274;12.292;2022-12-29T06:42:38;1.47;;;1.30;;
1799;SDS011;919;48.274;12.292;2022-12-29T06:45:05;2.50;;;1.57;;
1799;SDS011;919;48.274;12.292;2022-12-29T06:47:32;1.90;;;1.53;;
1799;SDS011;919;48.274;12.292;2022-12-29T06:49:59;2.87;;;1.70;;
1799;SDS011;919;48.274;12.292;2022-12-29T06:52:26;2.03;;;1.40;;
1799;SDS011;919;48.274;12.292;2022-12-29T06:54:53;1.70;;;1.60;;
1799;SDS011;919;48.274;12.292;2022-12-29T06:57:21;1.53;;;1.43;;
1799;SDS011;919;48.274;12.292;2022-12-29T06:59:48;3.23;;;2.87;;
1799;SDS011;919;48.274;12.292;2022-12-29T07:02:15;2.20;;;2.03;;
1799;SDS011;919;48.274;12.292;2022-12-29T07:04:43;2.23;;;2.03;;
1799;SDS011;919;48.274;12.292;2022-12-29T07:07:10;1.70;;;1.60;;
1799;SDS011;919;48.274;12.292;2022-12-29T07:09:36;2.17;;;1.90;;
1799;SDS011;919;48.274;12.292;2022-12-29T07:12:03;2.40;;;1.90;;
1799;SDS011;919;48.274;12.292;2022-12-29T07:14:32;1.40;;;1.30;;
1799;SDS011;919;48.274;12.292;2022-12-29T07:16:59;1.10;;;1.00;;
1799;SDS011;919;48.274;12.292;2022-12-29T07:19:25;2.20;;;1.33;;
1799;SDS011;919;48.274;12.292;2022-12-29T07:21:53;1.07;;;0.97;;
1799;SDS011;919;48.274;12.292;2022-12-29T07:24:20;2.30;;;1.80;;
1799;SDS011;919;48.274;12.292;2022-12-29T07:26:47;2.10;;;1.77;;
1799;SDS011;919;48.274;12.292;2022-12-29T07:29:14;1.60;;;1.43;;
1799;SDS011;919;48.274;12.292;2022-12-29T07:31:42;2.87;;;1.93;;
1799;SDS011;919;48.274;12.292;2022-12-29T07:34:08;2.27;;;1.80;;
1799;SDS011;919;48.274;12.292;2022-12-29T07:36:35;3.70;;;1.70;;
1799;SDS011;919;48.274;12.292;2022-12-29T07:39:02;1.50;;;1.40;;
1799;SDS011;919;48.274;12.292;2022-12-29T07:41:29;2.00;;;1.70;;
1799;SDS011;919;48.274;12.292;2022-12-29T07:43:56;1.60;;;1.50;;
1799;SDS011;919;48.274;12.292;2022-12-29T07:46:23;2.77;;;2.03;;
1799;SDS011;919;48.274;12.292;2022-12-29T07:48:51;2.10;;;1.97;;
1799;SDS011;919;48.274;12.292;2022-12-29T07:51:18;1.80;;;1.70;;
1799;SDS011;919;48.274;12.292;2022-12-29T07:53:44;2.50;;;2.30;;
1799;SDS011;919;48.274;12.292;2022-12-29T07:56:11;2.27;;;1.67;;
1799;SDS011;919;48.274;12.292;2022-12-29T07:58:38;3.00;;;2.23;;
1799;SDS011;919;48.274;12.292;2022-12-29T08:01:05;2.50;;;1.77;;
1799;SDS011;919;48.274;12.292;2022-12-29T08:03:31;1.83;;;1.67;;
1799;SDS011;919;48.274;12.292;2022-12-29T08:05:59;2.00;;;1.63;;
1799;SDS011;919;48.274;12.292;2022-12-29T08:08:26;2.20;;;1.60;;
1799;SDS011;919;48.274;12.292;2022-12-29T08:10:53;2.50;;;1.90;;
1799;SDS011;919;48.274;12.292;2022-12-29T08:13:20;2.93;;;1.80;;
1799;SDS011;919;48.274;12.292;2022-12-29T08:15:47;2.50;;;2.10;;
1799;SDS011;919;48.274;12.292;2022-12-29T08:18:14;1.67;;;1.50;;
1799;SDS011;919;48.274;12.292;2022-12-29T08:20:40;2.57;;;1.63;;
1799;SDS011;919;48.274;12.292;2022-12-29T08:23:08;2.67;;;1.77;;
1799;SDS011;919;48.274;12.292;2022-12-29T08:25:35;1.60;;;1.37;;
1799;SDS011;919;48.274;12.292;2022-12-29T08:28:02;1.43;;;1.30;;
1799;SDS011;919;48.274;12.292;2022-12-29T08:30:29;1.70;;;1.60;;
1799;SDS011;919;48.274;12.292;2022-12-29T08:32:55;1.60;;;1.50;;
1799;SDS011;919;48.274;12.292;2022-12-29T08:35:22;1.70;;;1.33;;
1799;SDS011;919;48.274;12.292;2022-12-29T08:37:49;1.60;;;1.50;;
1799;SDS011;919;48.274;12.292;2022-12-29T08:40:17;1.97;;;1.50;;
1799;SDS011;919;48.274;12.292;2022-12-29T08:42:43;3.20;;;1.00;;
1799;SDS011;919;48.274;12.292;2022-12-29T08:45:10;1.27;;;1.17;;
1799;SDS011;919;48.274;12.292;2022-12-29T08:47:37;2.30;;;1.40;;
1799;SDS011;919;48.274;12.292;2022-12-29T08:50:04;2.53;;;1.57;;
1799;SDS011;919;48.274;12.292;2022-12-29T08:52:32;1.70;;;1.50;;
1799;SDS011;919;48.274;12.292;2022-12-29T08:54:58;1.30;;;1.20;;
1799;SDS011;919;48.274;12.292;2022-12-29T08:57:26;4.30;;;1.67;;
1799;SDS011;919;48.274;12.292;2022-12-29T08:59:53;2.63;;;1.20;;
1799;SDS011;919;48.274;12.292;2022-12-29T09:02:20;1.90;;;1.30;;
1799;SDS011;919;48.274;12.292;2022-12-29T09:04:46;1.30;;;1.23;;
1799;SDS011;919;48.274;12.292;2022-12-29T09:07:13;1.40;;;1.30;;
1799;SDS011;919;48.274;12.292;2022-12-29T09:09:40;1.90;;;1.70;;
1799;SDS011;919;48.274;12.292;2022-12-29T09:12:07;2.60;;;1.73;;
1799;SDS011;919;48.274;12.292;2022-12-29T09:14:35;2.40;;;1.80;;
1799;SDS011;919;48.274;12.292;2022-12-29T09:17:01;1.90;;;1.60;;
1799;SDS011;919;48.274;12.292;2022-12-29T09:19:46;2.50;;;1.93;;
1799;SDS011;919;48.274;12.292;2022-12-29T09:22:12;2.20;;;2.00;;
1799;SDS011;919;48.274;12.292;2022-12-29T09:24:39;2.50;;;2.17;;
1799;SDS011;919;48.274;12.292;2022-12-29T09:27:06;2.30;;;2.10;;
1799;SDS011;919;48.274;12.292;2022-12-29T09:29:32;2.30;;;2.10;;
1799;SDS011;919;48.274;12.292;2022-12-29T09:32:00;2.93;;;2.60;;
1799;SDS011;919;48.274;12.292;2022-12-29T09:34:27;2.43;;;2.23;;
1799;SDS011;919;48.274;12.292;2022-12-29T09:36:54;2.53;;;2.10;;
1799;SDS011;919;48.274;12.292;2022-12-29T09:39:21;2.50;;;2.10;;
1799;SDS011;919;48.274;12.292;2022-12-29T09:41:49;2.33;;;2.13;;
1799;SDS011;919;48.274;12.292;2022-12-29T09:44:25;1.97;;;1.80;;
1799;SDS011;919;48.274;12.292;2022-12-29T09:47:05;3.40;;;1.50;;
1799;SDS011;919;48.274;12.292;2022-12-29T09:49:38;1.73;;;1.60;;
1799;SDS011;919;48.274;12.292;2022-12-29T09:52:11;1.73;;;1.63;;
1799;SDS011;919;48.274;12.292;2022-12-29T09:54:45;2.53;;;1.80;;
1799;SDS011;919;48.274;12.292;2022-12-29T09:57:18;2.10;;;1.43;;
1799;SDS011;919;48.274;12.292;2022-12-29T09:59:48;2.33;;;1.63;;
1799;SDS011;919;48.274;12.292;2022-12-29T10:02:23;1.87;;;1.73;;
1799;SDS011;919;48.274;12.292;2022-12-29T10:04:57;2.30;;;1.73;;
1799;SDS011;919;48.274;12.292;2022-12-29T10:07:26;2.23;;;1.67;;
1799;SDS011;919;48.274;12.292;2022-12-29T10:10:01;2.53;;;1.90;;
1799;SDS011;919;48.274;12.292;2022-12-29T10:12:38;1.60;;;1.50;;
1799;SDS011;919;48.274;12.292;2022-12-29T10:15:20;2.00;;;1.80;;
1799;SDS011;919;48.274;12.292;2022-12-29T10:18:00;2.40;;;1.90;;
1799;SDS011;919;48.274;12.292;2022-12-29T10:20:38;1.87;;;1.57;;
1799;SDS011;919;48.274;12.292;2022-12-29T10:23:19;3.90;;;1.50;;
1799;SDS011;919;48.274;12.292;2022-12-29T10:25:52;1.57;;;1.47;;
1799;SDS011;919;48.274;12.292;2022-12-29T10:28:22;1.87;;;1.60;;
1799;SDS011;919;48.274;12.292;2022-12-29T10:30:50;2.90;;;1.70;;
1799;SDS011;919;48.274;12.292;2022-12-29T10:33:20;2.40;;;1.97;;
1799;SDS011;919;48.274;12.292;2022-12-29T10:35:50;3.10;;;1.87;;
1799;SDS011;919;48.274;12.292;2022-12-29T10:38:20;3.13;;;1.27;;
1799;SDS011;919;48.274;12.292;2022-12-29T10:40:53;2.17;;;1.57;;
1799;SDS011;919;48.274;12.292;2022-12-29T10:43:25;1.60;;;1.50;;
1799;SDS011;919;48.274;12.292;2022-12-29T10:45:53;1.63;;;1.53;;
1799;SDS011;919;48.274;12.292;2022-12-29T10:48:25;1.73;;;1.50;;
1799;SDS011;919;48.274;12.292;2022-12-29T10:50:56;2.77;;;1.30;;
1799;SDS011;919;48.274;12.292;2022-12-29T10:53:25;2.00;;;1.57;;
1799;SDS011;919;48.274;12.292;2022-12-29T10:55:55;2.07;;;1.80;;
1799;SDS011;919;48.274;12.292;2022-12-29T10:58:22;2.17;;;1.50;;
1799;SDS011;919;48.274;12.292;2022-12-29T11:00:52;1.77;;;1.53;;
1799;SDS011;919;48.274;12.292;2022-12-29T11:03:40;1.53;;;1.33;;
1799;SDS011;919;48.274;12.292;2022-12-29T11:06:17;1.50;;;1.30;;
1799;SDS011;919;48.274;12.292;2022-12-29T11:08:51;2.83;;;1.70;;
1799;SDS011;919;48.274;12.292;2022-12-29T11:11:23;1.60;;;1.50;;
1799;SDS011;919;48.274;12.292;2022-12-29T11:13:55;1.50;;;1.40;;
1799;SDS011;919;48.274;12.292;2022-12-29T11:16:27;1.50;;;1.30;;
1799;SDS011;919;48.274;12.292;2022-12-29T11:18:58;2.00;;;1.33;;
1799;SDS011;919;48.274;12.292;2022-12-29T11:21:27;1.90;;;1.30;;
1799;SDS011;919;48.274;12.292;2022-12-29T11:23:58;2.20;;;1.40;;
1799;SDS011;919;48.274;12.292;2022-12-29T11:26:26;1.83;;;1.63;;
1799;SDS011;919;48.274;12.292;2022-12-29T11:32:10;2.20;;;1.50;;
1799;SDS011;919;48.274;12.292;2022-12-29T11:34:40;1.77;;;1.67;;
1799;SDS011;919;48.274;12.292;2022-12-29T11:37:10;3.77;;;1.40;;
1799;SDS011;919;48.274;12.292;2022-12-29T11:39:39;2.20;;;1.50;;
1799;SDS011;919;48.274;12.292;2022-12-29T11:42:12;1.50;;;1.40;;
1799;SDS011;919;48.274;12.292;2022-12-29T11:44:42;1.50;;;1.40;;
1799;SDS011;919;48.274;12.292;2022-12-29T11:47:13;2.03;;;1.40;;
1799;SDS011;919;48.274;12.292;2022-12-29T11:49:50;2.53;;;1.43;;
1799;SDS011;919;48.274;12.292;2022-12-29T11:52:20;3.93;;;1.40;;
1799;SDS011;919;48.274;12.292;2022-12-29T11:54:48;2.40;;;1.57;;
1799;SDS011;919;48.274;12.292;2022-12-29T11:57:16;3.33;;;1.93;;
1799;SDS011;919;48.274;12.292;2022-12-29T11:59:48;1.20;;;1.10;;
1799;SDS011;919;48.274;12.292;2022-12-29T12:05:18;1.53;;;1.43;;
1799;SDS011;919;48.274;12.292;2022-12-29T12:07:49;1.77;;;1.40;;
1799;SDS011;919;48.274;12.292;2022-12-29T12:10:22;1.60;;;1.50;;
1799;SDS011;919;48.274;12.292;2022-12-29T12:12:55;1.70;;;1.37;;
1799;SDS011;919;48.274;12.292;2022-12-29T12:15:29;1.37;;;1.27;;
1799;SDS011;919;48.274;12.292;2022-12-29T12:18:02;2.00;;;1.57;;
1799;SDS011;919;48.274;12.292;2022-12-29T12:20:38;1.40;;;1.30;;
1799;SDS011;919;48.274;12.292;2022-12-29T12:23:16;1.83;;;1.73;;
1799;SDS011;919;48.274;12.292;2022-12-29T12:25:55;1.40;;;1.13;;
1799;SDS011;919;48.274;12.292;2022-12-29T12:28:26;2.40;;;1.70;;
1799;SDS011;919;48.274;12.292;2022-12-29T12:31:00;1.83;;;1.63;;
1799;SDS011;919;48.274;12.292;2022-12-29T12:33:31;2.70;;;1.70;;
1799;SDS011;919;48.274;12.292;2022-12-29T12:36:14;2.23;;;1.70;;
1799;SDS011;919;48.274;12.292;2022-12-29T12:38:53;2.87;;;1.80;;
1799;SDS011;919;48.274;12.292;2022-12-29T12:41:28;2.00;;;1.40;;
1799;SDS011;919;48.274;12.292;2022-12-29T12:44:05;3.10;;;2.30;;
1799;SDS011;919;48.274;12.292;2022-12-29T12:46:46;1.90;;;1.60;;
1799;SDS011;919;48.274;12.292;2022-12-29T12:52:41;1.50;;;1.40;;
1799;SDS011;919;48.274;12.292;2022-12-29T12:55:25;1.77;;;1.53;;
1799;SDS011;919;48.274;12.292;2022-12-29T12:58:03;2.23;;;1.60;;
1799;SDS011;919;48.274;12.292;2022-12-29T13:00:38;1.70;;;1.50;;
1799;SDS011;919;48.274;12.292;2022-12-29T13:03:17;2.00;;;1.50;;
1799;SDS011;919;48.274;12.292;2022-12-29T13:05:57;1.57;;;1.27;;
1799;SDS011;919;48.274;12.292;2022-12-29T13:08:41;1.60;;;1.40;;
1799;SDS011;919;48.274;12.292;2022-12-29T13:11:20;2.60;;;1.80;;
1799;SDS011;919;48.274;12.292;2022-12-29T13:14:01;1.60;;;1.43;;
1799;SDS011;919;48.274;12.292;2022-12-29T13:16:46;1.50;;;1.40;;
1799;SDS011;919;48.274;12.292;2022-12-29T13:19:22;2.97;;;1.83;;
1799;SDS011;919;48.274;12.292;2022-12-29T13:21:58;1.77;;;1.67;;
1799;SDS011;919;48.274;12.292;2022-12-29T13:24:35;1.93;;;1.73;;
1799;SDS011;919;48.274;12.292;2022-12-29T13:27:13;2.27;;;1.60;;
1799;SDS011;919;48.274;12.292;2022-12-29T13:29:46;1.80;;;1.43;;
1799;SDS011;919;48.274;12.292;2022-12-29T13:32:19;2.57;;;1.60;;
1799;SDS011;919;48.274;12.292;2022-12-29T13:34:56;1.87;;;1.50;;
1799;SDS011;919;48.274;12.292;2022-12-29T13:37:36;1.73;;;1.60;;
1799;SDS011;919;48.274;12.292;2022-12-29T13:40:14;1.83;;;1.63;;
1799;SDS011;919;48.274;12.292;2022-12-29T13:42:45;1.07;;;0.97;;
1799;SDS011;919;48.274;12.292;2022-12-29T13:45:14;2.57;;;1.50;;
1799;SDS011;919;48.274;12.292;2022-12-29T13:47:44;2.17;;;1.70;;
1799;SDS011;919;48.274;12.292;2022-12-29T13:50:15;3.60;;;1.80;;
1799;SDS011;919;48.274;12.292;2022-12-29T13:52:45;2.53;;;1.60;;
1799;SDS011;919;48.274;12.292;2022-12-29T13:55:23;1.60;;;1.50;;
1799;SDS011;919;48.274;12.292;2022-12-29T13:57:54;1.17;;;1.07;;
1799;SDS011;919;48.274;12.292;2022-12-29T14:00:26;1.50;;;1.40;;
1799;SDS011;919;48.274;12.292;2022-12-29T14:03:03;1.17;;;1.00;;
1799;SDS011;919;48.274;12.292;2022-12-29T14:05:43;1.83;;;1.73;;
1799;SDS011;919;48.274;12.292;2022-12-29T14:08:14;1.87;;;1.67;;
1799;SDS011;919;48.274;12.292;2022-12-29T14:10:47;2.13;;;1.43;;
1799;SDS011;919;48.274;12.292;2022-12-29T14:13:16;1.50;;;1.40;;
1799;SDS011;919;48.274;12.292;2022-12-29T14:15:45;2.57;;;1.83;;
1799;SDS011;919;48.274;12.292;2022-12-29T14:18:18;1.63;;;1.40;;
1799;SDS011;919;48.274;12.292;2022-12-29T14:20:49;1.70;;;1.57;;
1799;SDS011;919;48.274;12.292;2022-12-29T14:23:26;3.20;;;1.80;;
1799;SDS011;919;48.274;12.292;2022-12-29T14:26:11;1.97;;;1.77;;
1799;SDS011;919;48.274;12.292;2022-12-29T14:28:41;1.70;;;1.37;;
1799;SDS011;919;48.274;12.292;2022-12-29T14:36:56;2.00;;;1.80;;
1799;SDS011;919;48.274;12.292;2022-12-29T14:39:35;1.73;;;1.63;;
1799;SDS011;919;48.274;12.292;2022-12-29T14:42:06;2.23;;;1.83;;
1799;SDS011;919;48.274;12.292;2022-12-29T14:44:45;2.47;;;1.67;;
1799;SDS011;919;48.274;12.292;2022-12-29T14:47:16;2.73;;;2.00;;
1799;SDS011;919;48.274;12.292;2022-12-29T14:49:46;2.27;;;2.03;;
1799;SDS011;919;48.274;12.292;2022-12-29T14:52:14;2.53;;;2.10;;
1799;SDS011;919;48.274;12.292;2022-12-29T14:54:48;4.13;;;2.53;;
1799;SDS011;919;48.274;12.292;2022-12-29T14:57:22;3.50;;;2.30;;
1799;SDS011;919;48.274;12.292;2022-12-29T14:59:54;3.37;;;2.30;;
1799;SDS011;919;48.274;12.292;2022-12-29T15:02:25;2.15;;;1.95;;
1799;SDS011;919;48.274;12.292;2022-12-29T15:04:58;2.20;;;2.00;;
1799;SDS011;919;48.274;12.292;2022-12-29T15:07:26;3.77;;;2.80;;
1799;SDS011;919;48.274;12.292;2022-12-29T15:09:56;2.53;;;2.10;;
1799;SDS011;919;48.274;12.292;2022-12-29T15:12:30;2.40;;;1.83;;
1799;SDS011;919;48.274;12.292;2022-12-29T15:15:02;2.03;;;1.83;;
1799;SDS011;919;48.274;12.292;2022-12-29T15:17:45;2.80;;;2.00;;
1799;SDS011;919;48.274;12.292;2022-12-29T15:20:17;2.57;;;2.37;;
1799;SDS011;919;48.274;12.292;2022-12-29T15:22:51;2.80;;;1.97;;
1799;SDS011;919;48.274;12.292;2022-12-29T15:25:21;2.00;;;1.80;;
1799;SDS011;919;48.274;12.292;2022-12-29T15:27:50;1.67;;;1.57;;
1799;SDS011;919;48.274;12.292;2022-12-29T15:30:17;2.20;;;1.80;;
1799;SDS011;919;48.274;12.292;2022-12-29T15:32:45;2.60;;;2.20;;
1799;SDS011;919;48.274;12.292;2022-12-29T15:35:24;2.07;;;1.93;;
1799;SDS011;919;48.274;12.292;2022-12-29T15:37:56;2.17;;;1.90;;
1799;SDS011;919;48.274;12.292;2022-12-29T15:40:25;2.10;;;1.60;;
1799;SDS011;919;48.274;12.292;2022-12-29T15:42:58;2.13;;;1.87;;
1799;SDS011;919;48.274;12.292;2022-12-29T15:45:38;3.73;;;1.97;;
1799;SDS011;919;48.274;12.292;2022-12-29T15:48:07;1.60;;;1.50;;
1799;SDS011;919;48.274;12.292;2022-12-29T15:50:40;2.00;;;1.90;;
1799;SDS011;919;48.274;12.292;2022-12-29T15:53:09;3.03;;;2.20;;
1799;SDS011;919;48.274;12.292;2022-12-29T15:55:38;3.20;;;2.13;;
1799;SDS011;919;48.274;12.292;2022-12-29T15:58:17;2.23;;;2.03;;
1799;SDS011;919;48.274;12.292;2022-12-29T16:00:46;2.40;;;2.00;;